Air Quality Table

TIMESTAMP NO2 SO2 O3 PM10 PM2.5 CO TEMP HUM AIRPRES WS WD NO BENZENE
2021-07-31 01:00 12.67 ug/m3 0.2 ug/m3 74.12 ug/m3 2.38 ug/m3 25.08 ug/m3 0.19 mg/m3 29.85 C 45.86 % 1,011.38 mbar 1.34 m/s 199.17 Deg 0.11 ug/m3 0.84 ug/m3
2021-07-31 00:00 17.87 ug/m3 0.17 ug/m3 63.98 ug/m3 1.91 ug/m3 21.54 ug/m3 0.21 mg/m3 30.29 C 40.98 % 1,011.73 mbar 1.13 m/s 190.93 Deg 0.08 ug/m3 1.26 ug/m3
2021-07-30 23:00 27.12 ug/m3 0.18 ug/m3 52.69 ug/m3 1.91 ug/m3 16.11 ug/m3 0.3 mg/m3 30.69 C 38.89 % 1,011.88 mbar 0.62 m/s 206.28 Deg 1.51 ug/m3 1.97 ug/m3
2021-07-30 22:00 18.54 ug/m3 0.26 ug/m3 60.35 ug/m3 1.91 ug/m3 20.28 ug/m3 0.26 mg/m3 30.1 C 47.55 % 1,011.77 mbar 0.98 m/s 206.6 Deg 1.1 ug/m3 0.97 ug/m3
2021-07-30 21:00 20.5 ug/m3 0.23 ug/m3 62.27 ug/m3 1.91 ug/m3 20.87 ug/m3 0.25 mg/m3 30.82 C 41.63 % 1,011.78 mbar 1.75 m/s 222.65 Deg 1.43 ug/m3 1.28 ug/m3
2021-07-30 20:00 24.14 ug/m3 0.22 ug/m3 57.64 ug/m3 1.91 ug/m3 16.32 ug/m3 0.24 mg/m3 31.84 C 32.92 % 1,011.50 mbar 1.77 m/s 216.47 Deg 1.96 ug/m3 1.05 ug/m3
2021-07-30 19:00 24.48 ug/m3 0.24 ug/m3 54.25 ug/m3 1.91 ug/m3 21.21 ug/m3 0.21 mg/m3 33.47 C 24.45 % 1,011.43 mbar 2.1 m/s 223.2 Deg 3.56 ug/m3 0.86 ug/m3
2021-07-30 18:00 21.16 ug/m3 0.28 ug/m3 56.62 ug/m3 1.91 ug/m3 27.08 ug/m3 0.19 mg/m3 34.34 C 23.68 % 1,011.52 mbar 2.53 m/s 231.33 Deg 4.27 ug/m3 1 ug/m3
2021-07-30 17:00 26.58 ug/m3 0.31 ug/m3 54.13 ug/m3 1.91 ug/m3 21.49 ug/m3 0.18 mg/m3 35.43 C 19.99 % 1,011.71 mbar 3.23 m/s 238.38 Deg 9.7 ug/m3 0.61 ug/m3
2021-07-30 16:00 19.64 ug/m3 0.31 ug/m3 63.59 ug/m3 1.91 ug/m3 18.49 ug/m3 0.18 mg/m3 35.76 C 19.91 % 1,012.15 mbar 3.21 m/s 238.13 Deg 4.68 ug/m3 0.7 ug/m3
2021-07-30 15:00 19.33 ug/m3 0.26 ug/m3 68.15 ug/m3 1.91 ug/m3 15.07 ug/m3 0.17 mg/m3 36.12 C 20.56 % 1,012.61 mbar 2.92 m/s 231.42 Deg 4.32 ug/m3 0.77 ug/m3
2021-07-30 14:00 22.15 ug/m3 0.27 ug/m3 69.79 ug/m3 1.91 ug/m3 18.1 ug/m3 0.19 mg/m3 36.28 C 21.06 % 1,012.96 mbar 2.81 m/s 236.18 Deg 4.94 ug/m3 1.12 ug/m3
2021-07-30 13:00 24.03 ug/m3 0.27 ug/m3 72.78 ug/m3 1.91 ug/m3 14.03 ug/m3 0.2 mg/m3 35.62 C 23.32 % 1,013.27 mbar 2.89 m/s 233.23 Deg 5.95 ug/m3 1.1 ug/m3
2021-07-30 12:00 24.26 ug/m3 0.31 ug/m3 74.52 ug/m3 1.91 ug/m3 23.27 ug/m3 0.2 mg/m3 35.84 C 20.6 % 1,013.59 mbar 2.73 m/s 234.1 Deg 5.19 ug/m3 0.94 ug/m3
2021-07-30 11:00 27.36 ug/m3 0.3 ug/m3 68.6 ug/m3 1.91 ug/m3 16.87 ug/m3 0.21 mg/m3 36.37 C 17.47 % 1,013.77 mbar 2.5 m/s 231.17 Deg 7.05 ug/m3 1.61 ug/m3
2021-07-30 10:00 40.61 ug/m3 0.42 ug/m3 61.27 ug/m3 1.91 ug/m3 21.76 ug/m3 0.28 mg/m3 35.91 C 18.34 % 1,014.05 mbar 1.92 m/s 249.9 Deg 11.2 ug/m3 2.03 ug/m3
2021-07-30 09:00 48.08 ug/m3 0.48 ug/m3 55.77 ug/m3 1.91 ug/m3 18.26 ug/m3 0.33 mg/m3 34.22 C 21.62 % 1,013.93 mbar 1.79 m/s 260.68 Deg 11.93 ug/m3 2.05 ug/m3
2021-07-30 08:00 61.83 ug/m3 0.59 ug/m3 43.01 ug/m3 1.91 ug/m3 24.59 ug/m3 0.39 mg/m3 32.24 C 29.35 % 1,013.74 mbar 1.14 m/s 249.35 Deg 18.9 ug/m3 3.65 ug/m3
2021-07-30 07:00 67.9 ug/m3 0.65 ug/m3 33.14 ug/m3 67.19 ug/m3 26.83 ug/m3 0.5 mg/m3 29.98 C 41.99 % 1,013.29 mbar 0.66 m/s 228.68 Deg 15.85 ug/m3 3.07 ug/m3
2021-07-30 06:00 51.11 ug/m3 0.53 ug/m3 40.99 ug/m3 36.6 ug/m3 20.47 ug/m3 0.48 mg/m3 28.4 C 47.75 % 1,012.97 mbar 0.52 m/s 235.19 Deg 13.82 ug/m3 1.47 ug/m3
2021-07-30 05:00 39.95 ug/m3 0.33 ug/m3 47 ug/m3 25.37 ug/m3 6.26 ug/m3 0.25 mg/m3 28.21 C 46.04 % 1,012.79 mbar 0.59 m/s 219.15 Deg 2.36 ug/m3 1.89 ug/m3
2021-07-30 04:00 30.84 ug/m3 0.59 ug/m3 48.74 ug/m3 34.8 ug/m3 9.51 ug/m3 0.2 mg/m3 28.59 C 34.25 % 1,012.76 mbar 0.62 m/s 224.52 Deg 1.87 ug/m3 1.4 ug/m3

It is to be noted that the data is provisional and subject to quality assurance procedures. For validated data kindly refer your request to contact.air@era.org.mt